sensor_id;sensor_type;location;lat;lon;timestamp;pressure;altitude;pressure_sealevel;temperature;humidity
17521;BME280;8878;-33.370;-70.552;2023-12-20T00:02:06;92098.53;;;18.26;62.22
17521;BME280;8878;-33.370;-70.552;2023-12-20T00:04:36;92104.19;;;18.25;63.03
17521;BME280;8878;-33.370;-70.552;2023-12-20T00:07:05;92106.41;;;18.31;63.18
17521;BME280;8878;-33.370;-70.552;2023-12-20T00:09:34;92103.25;;;18.38;63.00
17521;BME280;8878;-33.370;-70.552;2023-12-20T00:12:06;92099.63;;;18.34;63.31
17521;BME280;8878;-33.370;-70.552;2023-12-20T00:14:35;92112.53;;;18.32;62.89
17521;BME280;8878;-33.370;-70.552;2023-12-20T00:17:04;92111.13;;;18.26;63.51
17521;BME280;8878;-33.370;-70.552;2023-12-20T00:19:34;92105.59;;;18.22;63.65
17521;BME280;8878;-33.370;-70.552;2023-12-20T00:22:04;92103.41;;;18.16;63.76
17521;BME280;8878;-33.370;-70.552;2023-12-20T00:24:33;92109.06;;;18.14;63.82
17521;BME280;8878;-33.370;-70.552;2023-12-20T00:27:04;92112.50;;;18.06;64.12
17521;BME280;8878;-33.370;-70.552;2023-12-20T00:29:33;92113.28;;;18.07;65.05
17521;BME280;8878;-33.370;-70.552;2023-12-20T00:32:03;92118.38;;;17.77;66.22
17521;BME280;8878;-33.370;-70.552;2023-12-20T00:34:32;92115.22;;;17.67;66.14
17521;BME280;8878;-33.370;-70.552;2023-12-20T00:37:01;92116.69;;;17.81;66.48
17521;BME280;8878;-33.370;-70.552;2023-12-20T00:39:31;92111.47;;;17.76;66.73
17521;BME280;8878;-33.370;-70.552;2023-12-20T00:42:00;92114.94;;;17.68;66.96
17521;BME280;8878;-33.370;-70.552;2023-12-20T00:44:31;92119.94;;;17.61;67.53
17521;BME280;8878;-33.370;-70.552;2023-12-20T00:47:00;92121.06;;;17.69;67.46
17521;BME280;8878;-33.370;-70.552;2023-12-20T00:49:30;92124.66;;;17.73;67.41
17521;BME280;8878;-33.370;-70.552;2023-12-20T00:51:59;92125.44;;;17.73;67.62
17521;BME280;8878;-33.370;-70.552;2023-12-20T00:54:28;92126.84;;;17.71;68.07
17521;BME280;8878;-33.370;-70.552;2023-12-20T00:56:57;92129.75;;;17.52;68.21
17521;BME280;8878;-33.370;-70.552;2023-12-20T00:59:27;92130.75;;;17.34;68.54
17521;BME280;8878;-33.370;-70.552;2023-12-20T01:01:57;92125.00;;;17.09;71.13
17521;BME280;8878;-33.370;-70.552;2023-12-20T01:04:27;92130.97;;;17.15;72.10
17521;BME280;8878;-33.370;-70.552;2023-12-20T01:06:56;92121.63;;;17.26;72.85
17521;BME280;8878;-33.370;-70.552;2023-12-20T01:09:25;92121.66;;;17.35;71.24
17521;BME280;8878;-33.370;-70.552;2023-12-20T01:11:56;92127.81;;;17.44;70.42
17521;BME280;8878;-33.370;-70.552;2023-12-20T01:14:25;92122.69;;;17.56;69.99
17521;BME280;8878;-33.370;-70.552;2023-12-20T01:16:56;92130.59;;;17.61;68.97
17521;BME280;8878;-33.370;-70.552;2023-12-20T01:19:25;92134.00;;;17.53;69.88
17521;BME280;8878;-33.370;-70.552;2023-12-20T01:21:56;92123.78;;;17.55;70.49
17521;BME280;8878;-33.370;-70.552;2023-12-20T01:24:26;92131.78;;;17.55;70.47
17521;BME280;8878;-33.370;-70.552;2023-12-20T01:26:56;92131.47;;;17.56;71.30
17521;BME280;8878;-33.370;-70.552;2023-12-20T01:29:25;92128.78;;;17.48;71.80
17521;BME280;8878;-33.370;-70.552;2023-12-20T01:31:56;92124.22;;;17.48;71.67
17521;BME280;8878;-33.370;-70.552;2023-12-20T01:34:25;92125.50;;;17.51;71.98
17521;BME280;8878;-33.370;-70.552;2023-12-20T01:36:54;92133.06;;;17.27;71.92
17521;BME280;8878;-33.370;-70.552;2023-12-20T01:39:24;92127.31;;;17.33;71.94
17521;BME280;8878;-33.370;-70.552;2023-12-20T01:41:53;92127.78;;;17.35;73.86
17521;BME280;8878;-33.370;-70.552;2023-12-20T01:44:22;92129.81;;;17.30;73.75
17521;BME280;8878;-33.370;-70.552;2023-12-20T01:46:52;92132.47;;;17.30;73.73
17521;BME280;8878;-33.370;-70.552;2023-12-20T01:49:23;92129.75;;;17.21;72.78
17521;BME280;8878;-33.370;-70.552;2023-12-20T01:51:52;92142.69;;;17.05;73.12
17521;BME280;8878;-33.370;-70.552;2023-12-20T01:54:22;92137.19;;;17.02;74.29
17521;BME280;8878;-33.370;-70.552;2023-12-20T01:56:52;92135.91;;;16.99;74.88
17521;BME280;8878;-33.370;-70.552;2023-12-20T01:59:21;92143.53;;;16.92;76.46
17521;BME280;8878;-33.370;-70.552;2023-12-20T02:01:50;92136.63;;;16.91;78.65
17521;BME280;8878;-33.370;-70.552;2023-12-20T02:04:22;92130.84;;;16.89;79.44
17521;BME280;8878;-33.370;-70.552;2023-12-20T02:06:53;92134.09;;;16.86;80.22
17521;BME280;8878;-33.370;-70.552;2023-12-20T02:09:22;92135.03;;;16.81;79.92
17521;BME280;8878;-33.370;-70.552;2023-12-20T02:11:52;92134.22;;;16.81;79.26
17521;BME280;8878;-33.370;-70.552;2023-12-20T02:14:21;92136.91;;;16.81;79.55
17521;BME280;8878;-33.370;-70.552;2023-12-20T02:16:51;92135.16;;;16.76;80.59
17521;BME280;8878;-33.370;-70.552;2023-12-20T02:19:22;92133.00;;;16.65;82.53
17521;BME280;8878;-33.370;-70.552;2023-12-20T02:22:06;92132.25;;;16.51;84.06
17521;BME280;8878;-33.370;-70.552;2023-12-20T02:24:34;92132.13;;;16.56;81.83
17521;BME280;8878;-33.370;-70.552;2023-12-20T02:27:03;92128.63;;;16.47;80.63
17521;BME280;8878;-33.370;-70.552;2023-12-20T02:29:34;92122.03;;;16.44;82.76
17521;BME280;8878;-33.370;-70.552;2023-12-20T02:32:04;92124.38;;;16.45;84.14
17521;BME280;8878;-33.370;-70.552;2023-12-20T02:34:33;92125.47;;;16.44;84.78
17521;BME280;8878;-33.370;-70.552;2023-12-20T02:37:04;92129.84;;;16.40;83.97
17521;BME280;8878;-33.370;-70.552;2023-12-20T02:39:33;92123.41;;;16.41;84.02
17521;BME280;8878;-33.370;-70.552;2023-12-20T02:42:03;92125.31;;;16.27;84.55
17521;BME280;8878;-33.370;-70.552;2023-12-20T02:44:32;92114.41;;;16.15;84.36
17521;BME280;8878;-33.370;-70.552;2023-12-20T02:47:01;92123.50;;;16.14;84.03
17521;BME280;8878;-33.370;-70.552;2023-12-20T02:49:31;92115.06;;;15.98;82.32
17521;BME280;8878;-33.370;-70.552;2023-12-20T02:52:00;92119.19;;;16.04;82.39
17521;BME280;8878;-33.370;-70.552;2023-12-20T02:54:31;92115.84;;;15.99;80.42
17521;BME280;8878;-33.370;-70.552;2023-12-20T02:57:00;92115.06;;;15.98;84.77
17521;BME280;8878;-33.370;-70.552;2023-12-20T02:59:29;92114.28;;;15.98;83.25
17521;BME280;8878;-33.370;-70.552;2023-12-20T03:01:59;92112.50;;;15.93;83.46
17521;BME280;8878;-33.370;-70.552;2023-12-20T03:04:28;92105.06;;;15.54;81.52
17521;BME280;8878;-33.370;-70.552;2023-12-20T03:06:57;92109.25;;;15.42;83.07
17521;BME280;8878;-33.370;-70.552;2023-12-20T03:09:28;92109.56;;;15.26;83.49
17521;BME280;8878;-33.370;-70.552;2023-12-20T03:11:59;92106.13;;;15.12;86.30
17521;BME280;8878;-33.370;-70.552;2023-12-20T03:14:28;92099.63;;;15.05;85.82
17521;BME280;8878;-33.370;-70.552;2023-12-20T03:16:57;92099.69;;;15.13;85.05
17521;BME280;8878;-33.370;-70.552;2023-12-20T03:19:26;92094.59;;;15.17;83.68
17521;BME280;8878;-33.370;-70.552;2023-12-20T03:21:56;92090.97;;;15.26;82.76
17521;BME280;8878;-33.370;-70.552;2023-12-20T03:24:27;92093.22;;;15.47;82.49
17521;BME280;8878;-33.370;-70.552;2023-12-20T03:26:58;92092.88;;;15.53;83.87
17521;BME280;8878;-33.370;-70.552;2023-12-20T03:29:27;92091.00;;;15.54;81.92
17521;BME280;8878;-33.370;-70.552;2023-12-20T03:31:57;92095.22;;;15.55;81.47
17521;BME280;8878;-33.370;-70.552;2023-12-20T03:34:27;92088.22;;;15.59;84.50
17521;BME280;8878;-33.370;-70.552;2023-12-20T03:36:56;92091.50;;;15.56;83.49
17521;BME280;8878;-33.370;-70.552;2023-12-20T03:39:25;92081.19;;;15.49;83.55
17521;BME280;8878;-33.370;-70.552;2023-12-20T03:41:54;92088.09;;;15.37;83.41
17521;BME280;8878;-33.370;-70.552;2023-12-20T03:44:25;92082.22;;;15.40;84.33
17521;BME280;8878;-33.370;-70.552;2023-12-20T03:46:54;92076.50;;;15.33;84.84
17521;BME280;8878;-33.370;-70.552;2023-12-20T03:49:24;92081.81;;;15.19;85.39
17521;BME280;8878;-33.370;-70.552;2023-12-20T03:51:53;92080.22;;;15.18;85.95
17521;BME280;8878;-33.370;-70.552;2023-12-20T03:54:22;92078.56;;;15.22;85.76
17521;BME280;8878;-33.370;-70.552;2023-12-20T03:56:51;92077.69;;;15.26;85.71
17521;BME280;8878;-33.370;-70.552;2023-12-20T03:59:22;92077.38;;;15.14;85.30
17521;BME280;8878;-33.370;-70.552;2023-12-20T04:01:53;92077.47;;;14.96;86.30
17521;BME280;8878;-33.370;-70.552;2023-12-20T04:04:22;92065.63;;;14.74;88.89
17521;BME280;8878;-33.370;-70.552;2023-12-20T04:06:51;92067.38;;;14.65;90.48
17521;BME280;8878;-33.370;-70.552;2023-12-20T04:09:21;92065.38;;;14.57;89.95
17521;BME280;8878;-33.370;-70.552;2023-12-20T04:11:50;92060.88;;;14.71;94.00
17521;BME280;8878;-33.370;-70.552;2023-12-20T04:14:19;92056.28;;;14.77;93.28
17521;BME280;8878;-33.370;-70.552;2023-12-20T04:16:48;92056.69;;;14.84;96.46
17521;BME280;8878;-33.370;-70.552;2023-12-20T04:19:19;92059.44;;;14.79;98.25
17521;BME280;8878;-33.370;-70.552;2023-12-20T04:21:49;92059.69;;;14.64;100.00
17521;BME280;8878;-33.370;-70.552;2023-12-20T04:24:18;92049.41;;;14.43;98.57
17521;BME280;8878;-33.370;-70.552;2023-12-20T04:26:47;92055.03;;;14.42;97.33
17521;BME280;8878;-33.370;-70.552;2023-12-20T04:29:17;92044.53;;;14.50;95.88
17521;BME280;8878;-33.370;-70.552;2023-12-20T04:31:46;92054.19;;;14.60;96.45
17521;BME280;8878;-33.370;-70.552;2023-12-20T04:34:15;92046.63;;;14.67;97.02
17521;BME280;8878;-33.370;-70.552;2023-12-20T04:36:46;92035.72;;;14.69;98.63
17521;BME280;8878;-33.370;-70.552;2023-12-20T04:39:15;92041.41;;;14.62;98.70
17521;BME280;8878;-33.370;-70.552;2023-12-20T04:41:45;92039.34;;;14.59;100.00
17521;BME280;8878;-33.370;-70.552;2023-12-20T04:44:14;92038.13;;;14.52;100.00
17521;BME280;8878;-33.370;-70.552;2023-12-20T04:46:43;92034.78;;;14.46;100.00
17521;BME280;8878;-33.370;-70.552;2023-12-20T04:49:13;92035.22;;;14.34;99.57
17521;BME280;8878;-33.370;-70.552;2023-12-20T04:51:42;92035.81;;;14.31;99.78
17521;BME280;8878;-33.370;-70.552;2023-12-20T04:54:13;92032.34;;;14.31;99.97
17521;BME280;8878;-33.370;-70.552;2023-12-20T04:56:42;92034.44;;;14.34;100.00
17521;BME280;8878;-33.370;-70.552;2023-12-20T04:59:12;92036.03;;;14.35;99.92
17521;BME280;8878;-33.370;-70.552;2023-12-20T05:01:42;92029.06;;;14.39;100.00
17521;BME280;8878;-33.370;-70.552;2023-12-20T05:04:11;92029.06;;;14.39;100.00
17521;BME280;8878;-33.370;-70.552;2023-12-20T05:06:40;92022.13;;;14.24;100.00
17521;BME280;8878;-33.370;-70.552;2023-12-20T05:09:10;92030.88;;;14.25;100.00
17521;BME280;8878;-33.370;-70.552;2023-12-20T05:11:40;92028.75;;;14.08;99.65
17521;BME280;8878;-33.370;-70.552;2023-12-20T05:14:10;92026.63;;;13.91;100.00
17521;BME280;8878;-33.370;-70.552;2023-12-20T05:16:39;92021.38;;;14.05;100.00
17521;BME280;8878;-33.370;-70.552;2023-12-20T05:19:08;92015.88;;;14.15;100.00
17521;BME280;8878;-33.370;-70.552;2023-12-20T05:21:37;92013.97;;;14.21;100.00
17521;BME280;8878;-33.370;-70.552;2023-12-20T05:24:07;92015.75;;;14.25;100.00
17521;BME280;8878;-33.370;-70.552;2023-12-20T05:26:36;92013.66;;;14.22;100.00
17521;BME280;8878;-33.370;-70.552;2023-12-20T05:29:07;92005.50;;;14.19;100.00
17521;BME280;8878;-33.370;-70.552;2023-12-20T05:31:36;92011.00;;;14.22;100.00
17521;BME280;8878;-33.370;-70.552;2023-12-20T05:34:06;91997.41;;;14.10;100.00
17521;BME280;8878;-33.370;-70.552;2023-12-20T05:36:35;92002.25;;;13.89;100.00
17521;BME280;8878;-33.370;-70.552;2023-12-20T05:39:05;92000.47;;;13.66;100.00
17521;BME280;8878;-33.370;-70.552;2023-12-20T05:41:34;91992.09;;;13.59;100.00
17521;BME280;8878;-33.370;-70.552;2023-12-20T05:44:06;91989.00;;;13.52;100.00
17521;BME280;8878;-33.370;-70.552;2023-12-20T05:46:36;91994.97;;;13.44;100.00
17521;BME280;8878;-33.370;-70.552;2023-12-20T05:49:06;91988.16;;;13.38;100.00
17521;BME280;8878;-33.370;-70.552;2023-12-20T05:51:37;91987.88;;;13.39;100.00
17521;BME280;8878;-33.370;-70.552;2023-12-20T05:54:06;91978.06;;;13.40;100.00
17521;BME280;8878;-33.370;-70.552;2023-12-20T05:56:35;91980.72;;;13.40;100.00
17521;BME280;8878;-33.370;-70.552;2023-12-20T05:59:07;91977.00;;;13.41;100.00
17521;BME280;8878;-33.370;-70.552;2023-12-20T06:01:36;91976.41;;;13.44;100.00
17521;BME280;8878;-33.370;-70.552;2023-12-20T06:04:06;91971.06;;;13.49;100.00
17521;BME280;8878;-33.370;-70.552;2023-12-20T06:06:39;91974.63;;;13.58;100.00
17521;BME280;8878;-33.370;-70.552;2023-12-20T06:09:09;91968.66;;;13.66;100.00
17521;BME280;8878;-33.370;-70.552;2023-12-20T06:11:38;91972.38;;;13.65;100.00
17521;BME280;8878;-33.370;-70.552;2023-12-20T06:14:09;91968.81;;;13.37;100.00
17521;BME280;8878;-33.370;-70.552;2023-12-20T06:16:38;91977.41;;;13.29;100.00
17521;BME280;8878;-33.370;-70.552;2023-12-20T06:19:07;91966.16;;;13.37;100.00
17521;BME280;8878;-33.370;-70.552;2023-12-20T06:21:38;91973.41;;;13.50;100.00
17521;BME280;8878;-33.370;-70.552;2023-12-20T06:24:07;91969.97;;;13.50;100.00
17521;BME280;8878;-33.370;-70.552;2023-12-20T06:26:39;91979.72;;;13.54;100.00
17521;BME280;8878;-33.370;-70.552;2023-12-20T06:29:10;91975.97;;;13.37;100.00
17521;BME280;8878;-33.370;-70.552;2023-12-20T06:31:39;91981.00;;;13.19;100.00
17521;BME280;8878;-33.370;-70.552;2023-12-20T06:34:08;91972.53;;;13.36;100.00
17521;BME280;8878;-33.370;-70.552;2023-12-20T06:36:37;91967.75;;;13.57;100.00
17521;BME280;8878;-33.370;-70.552;2023-12-20T06:39:08;91976.34;;;13.67;100.00
17521;BME280;8878;-33.370;-70.552;2023-12-20T06:41:39;91976.78;;;13.56;100.00
17521;BME280;8878;-33.370;-70.552;2023-12-20T06:44:11;91977.50;;;13.43;100.00
17521;BME280;8878;-33.370;-70.552;2023-12-20T06:46:40;91969.41;;;13.34;100.00
17521;BME280;8878;-33.370;-70.552;2023-12-20T06:49:10;91969.97;;;13.31;100.00
17521;BME280;8878;-33.370;-70.552;2023-12-20T06:51:39;91969.69;;;13.32;100.00
17521;BME280;8878;-33.370;-70.552;2023-12-20T06:54:08;91970.69;;;13.37;100.00
17521;BME280;8878;-33.370;-70.552;2023-12-20T06:56:37;91965.25;;;13.28;100.00
17521;BME280;8878;-33.370;-70.552;2023-12-20T06:59:07;91971.97;;;13.20;100.00
17521;BME280;8878;-33.370;-70.552;2023-12-20T07:01:38;91967.16;;;13.22;100.00
17521;BME280;8878;-33.370;-70.552;2023-12-20T07:04:08;91968.47;;;13.25;100.00
17521;BME280;8878;-33.370;-70.552;2023-12-20T07:06:37;91967.28;;;13.12;100.00
17521;BME280;8878;-33.370;-70.552;2023-12-20T07:09:07;91962.81;;;13.13;100.00
17521;BME280;8878;-33.370;-70.552;2023-12-20T07:11:37;91963.50;;;13.00;100.00
17521;BME280;8878;-33.370;-70.552;2023-12-20T07:14:06;91965.53;;;12.84;100.00
17521;BME280;8878;-33.370;-70.552;2023-12-20T07:16:37;91974.03;;;12.81;100.00
17521;BME280;8878;-33.370;-70.552;2023-12-20T07:19:07;91963.59;;;12.89;100.00
17521;BME280;8878;-33.370;-70.552;2023-12-20T07:21:36;91965.53;;;13.03;100.00
17521;BME280;8878;-33.370;-70.552;2023-12-20T07:24:06;91962.53;;;13.14;100.00
17521;BME280;8878;-33.370;-70.552;2023-12-20T07:26:36;91967.69;;;13.24;100.00
17521;BME280;8878;-33.370;-70.552;2023-12-20T07:29:07;91965.53;;;13.26;100.00
17521;BME280;8878;-33.370;-70.552;2023-12-20T07:31:38;91965.03;;;13.24;100.00
17521;BME280;8878;-33.370;-70.552;2023-12-20T07:34:08;91970.13;;;13.21;100.00
17521;BME280;8878;-33.370;-70.552;2023-12-20T07:36:37;91960.59;;;13.20;100.00
17521;BME280;8878;-33.370;-70.552;2023-12-20T07:39:07;91960.88;;;13.18;100.00
17521;BME280;8878;-33.370;-70.552;2023-12-20T07:41:37;91973.59;;;13.16;100.00
17521;BME280;8878;-33.370;-70.552;2023-12-20T07:44:06;91968.44;;;13.06;100.00
17521;BME280;8878;-33.370;-70.552;2023-12-20T07:46:37;91967.69;;;13.01;100.00
17521;BME280;8878;-33.370;-70.552;2023-12-20T07:49:06;91971.72;;;12.98;100.00
17521;BME280;8878;-33.370;-70.552;2023-12-20T07:51:37;91971.47;;;12.94;100.00
17521;BME280;8878;-33.370;-70.552;2023-12-20T07:54:07;91970.06;;;13.02;100.00
17521;BME280;8878;-33.370;-70.552;2023-12-20T07:56:36;91973.78;;;13.01;100.00
17521;BME280;8878;-33.370;-70.552;2023-12-20T07:59:06;91969.09;;;12.93;100.00
17521;BME280;8878;-33.370;-70.552;2023-12-20T08:01:37;91976.13;;;12.84;100.00
17521;BME280;8878;-33.370;-70.552;2023-12-20T08:04:07;91971.72;;;12.74;100.00
17521;BME280;8878;-33.370;-70.552;2023-12-20T08:06:36;91966.78;;;12.68;100.00
17521;BME280;8878;-33.370;-70.552;2023-12-20T08:09:05;91974.19;;;12.66;100.00
17521;BME280;8878;-33.370;-70.552;2023-12-20T08:11:35;91979.09;;;12.53;100.00
17521;BME280;8878;-33.370;-70.552;2023-12-20T08:14:04;91977.59;;;12.47;100.00
17521;BME280;8878;-33.370;-70.552;2023-12-20T08:16:33;91980.69;;;12.54;100.00
17521;BME280;8878;-33.370;-70.552;2023-12-20T08:19:04;91984.91;;;12.55;100.00
17521;BME280;8878;-33.370;-70.552;2023-12-20T08:21:34;91982.19;;;12.61;100.00
17521;BME280;8878;-33.370;-70.552;2023-12-20T08:24:03;91984.84;;;12.61;100.00
17521;BME280;8878;-33.370;-70.552;2023-12-20T08:26:33;91982.09;;;12.47;100.00
17521;BME280;8878;-33.370;-70.552;2023-12-20T08:29:04;91979.19;;;12.43;100.00
17521;BME280;8878;-33.370;-70.552;2023-12-20T08:31:33;91977.59;;;12.47;100.00
17521;BME280;8878;-33.370;-70.552;2023-12-20T08:34:05;91979.94;;;12.49;100.00
17521;BME280;8878;-33.370;-70.552;2023-12-20T08:36:34;91984.19;;;12.50;100.00
17521;BME280;8878;-33.370;-70.552;2023-12-20T08:39:03;91989.09;;;12.33;100.00
17521;BME280;8878;-33.370;-70.552;2023-12-20T08:41:34;91991.56;;;12.24;100.00
17521;BME280;8878;-33.370;-70.552;2023-12-20T08:44:04;91984.53;;;12.38;100.00
17521;BME280;8878;-33.370;-70.552;2023-12-20T08:46:33;91991.25;;;12.54;100.00
17521;BME280;8878;-33.370;-70.552;2023-12-20T08:49:04;91988.56;;;12.60;100.00
17521;BME280;8878;-33.370;-70.552;2023-12-20T08:51:34;91991.22;;;12.60;100.00
17521;BME280;8878;-33.370;-70.552;2023-12-20T08:54:03;91989.63;;;12.59;100.00
17521;BME280;8878;-33.370;-70.552;2023-12-20T08:56:34;91993.13;;;12.54;100.00
17521;BME280;8878;-33.370;-70.552;2023-12-20T08:59:03;91993.91;;;12.54;100.00
17521;BME280;8878;-33.370;-70.552;2023-12-20T09:01:33;91992.88;;;12.50;100.00
17521;BME280;8878;-33.370;-70.552;2023-12-20T09:04:04;91991.94;;;12.41;100.00
17521;BME280;8878;-33.370;-70.552;2023-12-20T09:06:34;91995.38;;;12.42;100.00
17521;BME280;8878;-33.370;-70.552;2023-12-20T09:09:03;91994.94;;;12.30;100.00
17521;BME280;8878;-33.370;-70.552;2023-12-20T09:11:32;92005.13;;;12.18;100.00
17521;BME280;8878;-33.370;-70.552;2023-12-20T09:14:02;91995.84;;;12.20;100.00
17521;BME280;8878;-33.370;-70.552;2023-12-20T09:16:31;92005.13;;;12.18;100.00
17521;BME280;8878;-33.370;-70.552;2023-12-20T09:19:01;92006.28;;;12.06;100.00
17521;BME280;8878;-33.370;-70.552;2023-12-20T09:21:32;92016.09;;;12.01;100.00
17521;BME280;8878;-33.370;-70.552;2023-12-20T09:24:01;92007.03;;;12.12;100.00
17521;BME280;8878;-33.370;-70.552;2023-12-20T09:26:30;92014.53;;;12.00;100.00
17521;BME280;8878;-33.370;-70.552;2023-12-20T09:29:00;92020.47;;;11.82;100.00
17521;BME280;8878;-33.370;-70.552;2023-12-20T09:31:29;92012.81;;;11.85;100.00
17521;BME280;8878;-33.370;-70.552;2023-12-20T09:33:58;92015.63;;;11.94;100.00
17521;BME280;8878;-33.370;-70.552;2023-12-20T09:36:27;92020.22;;;11.83;100.00
17521;BME280;8878;-33.370;-70.552;2023-12-20T09:39:00;92020.31;;;12.02;100.00
17521;BME280;8878;-33.370;-70.552;2023-12-20T09:41:33;92015.47;;;12.14;100.00
17521;BME280;8878;-33.370;-70.552;2023-12-20T09:44:07;92019.19;;;12.13;100.00
17521;BME280;8878;-33.370;-70.552;2023-12-20T09:46:39;92024.03;;;12.01;100.00
17521;BME280;8878;-33.370;-70.552;2023-12-20T09:49:12;92032.44;;;12.08;100.00
17521;BME280;8878;-33.370;-70.552;2023-12-20T09:51:43;92021.84;;;12.08;100.00
17521;BME280;8878;-33.370;-70.552;2023-12-20T09:54:17;92029.19;;;12.16;100.00
17521;BME280;8878;-33.370;-70.552;2023-12-20T09:56:47;92026.06;;;12.14;100.00
17521;BME280;8878;-33.370;-70.552;2023-12-20T09:59:16;92031.56;;;12.18;100.00
17521;BME280;8878;-33.370;-70.552;2023-12-20T10:01:46;92035.72;;;12.29;100.00
17521;BME280;8878;-33.370;-70.552;2023-12-20T10:04:16;92039.91;;;12.30;100.00
17521;BME280;8878;-33.370;-70.552;2023-12-20T10:06:45;92042.28;;;12.31;100.00
17521;BME280;8878;-33.370;-70.552;2023-12-20T10:09:16;92046.78;;;12.31;100.00
17521;BME280;8878;-33.370;-70.552;2023-12-20T10:11:46;92038.34;;;12.29;100.00
17521;BME280;8878;-33.370;-70.552;2023-12-20T10:14:16;92047.56;;;12.31;100.00
17521;BME280;8878;-33.370;-70.552;2023-12-20T10:16:46;92041.88;;;12.19;100.00
17521;BME280;8878;-33.370;-70.552;2023-12-20T10:19:17;92052.59;;;12.33;100.00
17521;BME280;8878;-33.370;-70.552;2023-12-20T10:21:47;92044.34;;;12.39;100.00
17521;BME280;8878;-33.370;-70.552;2023-12-20T10:24:19;92050.09;;;12.46;100.00
17521;BME280;8878;-33.370;-70.552;2023-12-20T10:27:02;92052.91;;;12.55;100.00
17521;BME280;8878;-33.370;-70.552;2023-12-20T10:29:33;92055.28;;;12.57;100.00
17521;BME280;8878;-33.370;-70.552;2023-12-20T10:32:22;92055.19;;;12.67;100.00
17521;BME280;8878;-33.370;-70.552;2023-12-20T10:34:52;92051.81;;;12.85;100.00
17521;BME280;8878;-33.370;-70.552;2023-12-20T10:37:22;92058.56;;;12.96;100.00
17521;BME280;8878;-33.370;-70.552;2023-12-20T10:39:53;92057.84;;;12.90;100.00
17521;BME280;8878;-33.370;-70.552;2023-12-20T10:42:26;92055.56;;;12.79;100.00
17521;BME280;8878;-33.370;-70.552;2023-12-20T10:44:58;92055.13;;;12.95;100.00
17521;BME280;8878;-33.370;-70.552;2023-12-20T10:47:28;92050.69;;;12.91;100.00
17521;BME280;8878;-33.370;-70.552;2023-12-20T10:50:00;92052.22;;;12.97;100.00
17521;BME280;8878;-33.370;-70.552;2023-12-20T10:52:33;92051.00;;;13.08;100.00
17521;BME280;8878;-33.370;-70.552;2023-12-20T10:55:06;92049.47;;;13.07;100.00
17521;BME280;8878;-33.370;-70.552;2023-12-20T10:57:36;92053.78;;;13.22;100.00
17521;BME280;8878;-33.370;-70.552;2023-12-20T11:00:09;92045.84;;;13.22;100.00
17521;BME280;8878;-33.370;-70.552;2023-12-20T11:02:43;92047.75;;;13.40;100.00
17521;BME280;8878;-33.370;-70.552;2023-12-20T11:05:22;92047.91;;;13.49;100.00
17521;BME280;8878;-33.370;-70.552;2023-12-20T11:07:57;92052.22;;;13.63;100.00
17521;BME280;8878;-33.370;-70.552;2023-12-20T11:10:35;92041.53;;;13.68;100.00
17521;BME280;8878;-33.370;-70.552;2023-12-20T11:13:10;92042.97;;;13.80;100.00
17521;BME280;8878;-33.370;-70.552;2023-12-20T11:15:41;92043.88;;;13.89;100.00
17521;BME280;8878;-33.370;-70.552;2023-12-20T11:18:11;92054.72;;;13.92;100.00
17521;BME280;8878;-33.370;-70.552;2023-12-20T11:20:41;92049.06;;;13.99;100.00
17521;BME280;8878;-33.370;-70.552;2023-12-20T11:23:10;92046.47;;;14.13;100.00
17521;BME280;8878;-33.370;-70.552;2023-12-20T11:25:53;92046.97;;;14.28;100.00
17521;BME280;8878;-33.370;-70.552;2023-12-20T11:28:23;92045.97;;;14.43;100.00
17521;BME280;8878;-33.370;-70.552;2023-12-20T11:30:53;92047.31;;;14.59;100.00
17521;BME280;8878;-33.370;-70.552;2023-12-20T11:33:24;92040.75;;;14.70;100.00
17521;BME280;8878;-33.370;-70.552;2023-12-20T11:35:56;92047.94;;;14.83;100.00
17521;BME280;8878;-33.370;-70.552;2023-12-20T11:38:26;92045.59;;;14.96;100.00
17521;BME280;8878;-33.370;-70.552;2023-12-20T11:40:57;92043.22;;;15.08;98.68
17521;BME280;8878;-33.370;-70.552;2023-12-20T11:43:32;92045.41;;;15.19;100.00
17521;BME280;8878;-33.370;-70.552;2023-12-20T11:46:05;92044.38;;;15.29;97.07
17521;BME280;8878;-33.370;-70.552;2023-12-20T11:48:36;92048.44;;;15.40;96.71
17521;BME280;8878;-33.370;-70.552;2023-12-20T11:51:10;92048.03;;;15.47;95.59
17521;BME280;8878;-33.370;-70.552;2023-12-20T11:53:40;92041.25;;;15.54;91.48
17521;BME280;8878;-33.370;-70.552;2023-12-20T11:56:11;92046.59;;;15.54;91.60
17521;BME280;8878;-33.370;-70.552;2023-12-20T11:58:41;92043.50;;;15.47;93.44
17521;BME280;8878;-33.370;-70.552;2023-12-20T12:01:11;92040.06;;;15.33;92.96
17521;BME280;8878;-33.370;-70.552;2023-12-20T12:03:40;92037.41;;;15.33;93.36
17521;BME280;8878;-33.370;-70.552;2023-12-20T12:06:09;92037.69;;;15.45;93.31
17521;BME280;8878;-33.370;-70.552;2023-12-20T12:08:39;92039.41;;;15.55;94.04
17521;BME280;8878;-33.370;-70.552;2023-12-20T12:11:11;92038.91;;;15.53;91.78
17521;BME280;8878;-33.370;-70.552;2023-12-20T12:13:40;92037.53;;;15.55;91.08
17521;BME280;8878;-33.370;-70.552;2023-12-20T12:16:11;92040.06;;;15.60;92.45
17521;BME280;8878;-33.370;-70.552;2023-12-20T12:18:40;92033.56;;;15.66;93.06
17521;BME280;8878;-33.370;-70.552;2023-12-20T12:21:10;92035.50;;;15.75;91.04
17521;BME280;8878;-33.370;-70.552;2023-12-20T12:23:39;92043.78;;;15.73;90.32
17521;BME280;8878;-33.370;-70.552;2023-12-20T12:26:10;92039.03;;;15.84;91.76
17521;BME280;8878;-33.370;-70.552;2023-12-20T12:28:41;92040.00;;;15.88;89.79
17521;BME280;8878;-33.370;-70.552;2023-12-20T12:31:14;92040.56;;;15.98;89.96
17521;BME280;8878;-33.370;-70.552;2023-12-20T12:33:44;92039.16;;;16.01;88.47
17521;BME280;8878;-33.370;-70.552;2023-12-20T12:36:13;92045.31;;;15.88;88.29
17521;BME280;8878;-33.370;-70.552;2023-12-20T12:38:44;92050.13;;;15.86;90.63
17521;BME280;8878;-33.370;-70.552;2023-12-20T12:41:16;92041.59;;;16.11;87.93
17521;BME280;8878;-33.370;-70.552;2023-12-20T12:43:46;92035.06;;;16.17;85.94
17521;BME280;8878;-33.370;-70.552;2023-12-20T12:46:15;92039.47;;;16.22;88.49
17521;BME280;8878;-33.370;-70.552;2023-12-20T12:48:44;92038.09;;;16.24;86.71
17521;BME280;8878;-33.370;-70.552;2023-12-20T12:51:14;92043.59;;;16.28;86.37